Forside
METAR-TAF:

METAR-TAF

Lufthavne :

Aomori, Japan

Breddekreds: 40-44N, længdekreds: 140-42E, højde: 199 m

Aktuelle vejr

Denne rapport blev lavet for 1 time og 3 minutter siden, kl. 03:00 UTC
Vind 9 kt fra nordøst
Temperatur -1°C
Fugtighed 54%
Tryk 1016 hPa
Sigt 10 km eller mere
Nogle få skyer i en højde af 2000 ft
Spredte skyer

METAR: RJSA 180300Z 05009KT 9999 FEW020 SCT/// M01/M09 Q1016

Tid: 13:03 (04:03 UTC)

Vejrudsigter

Denne rapport blev lavet for 4 timer og 58 minutter siden, kl. 23:05 UTC
Foreløbig gælder fra 18 på 00 UTC til 19 på 06 UTC
Vind 8 kt fra nordnordøst
Sigt 10 km eller mere
Nogle få skyer i en højde af 2000 ft
ændring
fra 18 på 12 UTC til 18 på 15 UTC
Vind 5 kt fra sydvest

TAF: RJSA 172305Z 1800/1906 03008KT 9999 FEW020 BECMG 1812/1815 23005KT

Vejrobservationer og prognoser fra mere end 4000 lufthavne (METAR og TAF).

De gule og røde prikker repræsenterer de meteorologiske stationer.

Flyt musen over at se navnet på stationen.

Så klik over at se vejr observationer og prognoser.

At skifte det kort: Klik på de grønne knapper med et sort kors for at zoome ind; på den grønne knap med en bindestreg for at zoome ud; eller på de grønne pile for tilstødende kort.


METAR-TAF: